Time;durP1;ratioP1;P1;durP2;ratioP2;P2;SDS_P1;SDS_P2;PMS_P1;PMS_P2;Temp;Humidity;BMP_temperature;BMP_pressure;BME280_temperature;BME280_humidity;BME280_pressure;Samples;Min_cycle;Max_cycle;Signal;HPM_P1;HPM_P2
2022/10/25 00:01:50;;;;;;;18.82;14.45;;;;;;;13.25;100.00;99781.53;1636801;87;21730;-59
2022/10/25 00:04:18;;;;;;;16.42;14.73;;;;;;;13.23;100.00;99783.40;1638596;85;21460;-59
2022/10/25 00:06:45;;;;;;;16.45;14.73;;;;;;;13.27;100.00;99780.61;1662077;84;21452;-59
2022/10/25 00:09:12;;;;;;;16.37;14.65;;;;;;;13.24;100.00;99773.24;1664933;85;21798;-59
2022/10/25 00:11:39;;;;;;;18.35;15.78;;;;;;;13.23;100.00;99775.48;1637179;85;21592;-59
2022/10/25 00:14:06;;;;;;;17.77;14.73;;;;;;;13.18;100.00;99769.58;1638847;85;21060;-59
2022/10/25 00:16:36;;;;;;;17.42;15.60;;;;;;;13.13;100.00;99766.34;1637014;87;21552;-60
2022/10/25 00:19:04;;;;;;;17.48;14.40;;;;;;;13.07;100.00;99767.11;1636906;87;21533;-60
2022/10/25 00:21:31;;;;;;;15.93;14.30;;;;;;;13.08;100.00;99762.23;1636857;86;22111;-59
2022/10/25 00:23:57;;;;;;;17.23;14.33;;;;;;;13.10;100.00;99761.20;1649868;84;21567;-60
2022/10/25 00:26:24;;;;;;;18.48;14.90;;;;;;;13.13;100.00;99754.46;1636841;85;21445;-59
2022/10/25 00:28:53;;;;;;;17.75;15.15;;;;;;;13.13;100.00;99750.95;1636870;87;21528;-60
2022/10/25 00:31:22;;;;;;;16.02;14.33;;;;;;;13.09;100.00;99746.77;1636933;87;21465;-60
2022/10/25 00:33:48;;;;;;;16.40;14.50;;;;;;;13.06;100.00;99745.14;1636976;86;21779;-61
2022/10/25 00:36:19;;;;;;;17.20;14.45;;;;;;;13.01;100.00;99733.96;1638666;85;21449;-59
2022/10/25 00:38:46;;;;;;;15.95;14.28;;;;;;;13.00;100.00;99732.27;1635399;87;21484;-59
2022/10/25 00:41:14;;;;;;;16.07;14.38;;;;;;;13.02;100.00;99733.05;1653741;84;21560;-59
2022/10/25 00:43:48;;;;;;;15.43;13.90;;;;;;;13.05;100.00;99737.70;1665680;83;21639;-59
2022/10/25 00:46:23;;;;;;;16.70;14.55;;;;;;;13.05;100.00;99731.10;1656207;86;21793;-59
2022/10/25 00:49:04;;;;;;;16.07;14.28;;;;;;;13.09;100.00;99741.48;1658079;86;20966;-60
2022/10/25 00:51:35;;;;;;;16.00;14.40;;;;;;;13.08;100.00;99734.04;1658159;85;21450;-59
2022/10/25 00:54:02;;;;;;;17.57;15.28;;;;;;;13.04;100.00;99733.34;1658134;86;21471;-59
2022/10/25 00:56:31;;;;;;;16.45;14.55;;;;;;;13.00;100.00;99729.16;1651172;85;21537;-59
2022/10/25 00:59:00;;;;;;;15.10;13.50;;;;;;;13.02;100.00;99737.00;1657589;83;21924;-59
2022/10/25 01:01:28;;;;;;;15.48;13.85;;;;;;;13.03;100.00;99738.25;1629862;86;21510;-59
2022/10/25 01:03:57;;;;;;;16.05;14.43;;;;;;;13.06;100.00;99735.91;1630003;86;21462;-60
2022/10/25 01:06:35;;;;;;;16.17;14.53;;;;;;;13.04;100.00;99729.38;1631567;86;21503;-59
2022/10/25 01:09:02;;;;;;;16.27;14.60;;;;;;;13.06;100.00;99721.39;1634247;84;21013;-59
2022/10/25 01:11:29;;;;;;;18.50;14.60;;;;;;;13.01;100.00;99718.97;1658454;86;21889;-59
2022/10/25 01:13:55;;;;;;;15.90;14.25;;;;;;;12.99;100.00;99712.08;1658302;84;22008;-60
2022/10/25 01:16:34;;;;;;;15.75;14.10;;;;;;;12.98;100.00;99711.23;1662893;84;21589;-60
2022/10/25 01:19:47;;;;;;;16.32;14.58;;;;;;;13.08;100.00;99715.56;1655171;86;21466;-59
2022/10/25 01:22:36;;;;;;;17.80;13.98;;;;;;;13.13;100.00;99705.63;1658179;85;21580;-59
2022/10/25 01:25:33;;;;;;;17.77;14.68;;;;;;;13.15;100.00;99695.84;1647973;84;22095;-59
2022/10/25 01:28:46;;;;;;;17.25;14.00;;;;;;;13.12;100.00;99690.70;1656300;86;21536;-59
2022/10/25 01:31:53;;;;;;;15.78;14.13;;;;;;;13.05;100.00;99694.59;1661400;84;21694;-59
2022/10/25 01:34:30;;;;;;;15.35;13.58;;;;;;;12.98;100.00;99689.27;1686066;83;20975;-59
2022/10/25 01:37:24;;;;;;;15.93;13.90;;;;;;;12.92;100.00;99681.66;1686257;84;25413;-59
2022/10/25 01:40:06;;;;;;;14.83;13.30;;;;;;;12.96;100.00;99676.59;1660819;84;21768;-59
2022/10/25 01:42:41;;;;;;;14.68;13.20;;;;;;;12.96;100.00;99673.95;1631325;86;21465;-59
2022/10/25 01:45:13;;;;;;;15.78;14.10;;;;;;;12.94;100.00;99673.19;1629864;86;21018;-59
2022/10/25 01:47:51;;;;;;;15.38;13.58;;;;;;;12.88;100.00;99673.52;1630097;86;21065;-60
2022/10/25 01:52:38;;;;;;;15.23;13.68;;;;;;;12.35;100.00;99689.33;1787591;79;23258;-62
2022/10/25 01:55:11;;;;;;;14.87;13.38;;;;;;;12.41;100.00;99689.49;1749881;80;21597;-62
2022/10/25 01:58:07;;;;;;;15.25;13.62;;;;;;;12.39;100.00;99680.81;1714270;82;21556;-62
2022/10/25 02:01:01;;;;;;;16.27;13.93;;;;;;;12.40;100.00;99682.05;1700437;84;21518;-60
2022/10/25 02:03:46;;;;;;;14.28;12.80;;;;;;;12.34;100.00;99675.78;1700681;83;21534;-61
2022/10/25 02:06:24;;;;;;;15.70;13.98;;;;;;;12.30;100.00;99684.77;1711303;82;21522;-60
2022/10/25 02:09:17;;;;;;;14.38;12.98;;;;;;;12.22;100.00;99681.64;1727853;81;21568;-61
2022/10/25 02:11:44;;;;;;;16.15;13.35;;;;;;;12.16;100.00;99688.06;1716235;83;23193;-61
2022/10/25 02:14:29;;;;;;;16.12;14.43;;;;;;;12.07;100.00;99682.80;1720757;83;21489;-61
2022/10/25 02:17:06;;;;;;;14.68;13.08;;;;;;;12.01;100.00;99680.43;1693759;83;20971;-62
2022/10/25 02:19:45;;;;;;;15.63;14.03;;;;;;;11.97;100.00;99688.58;1700622;83;21661;-61
2022/10/25 02:22:12;;;;;;;16.45;14.80;;;;;;;11.95;100.00;99703.13;1700322;84;21538;-61
2022/10/25 02:24:43;;;;;;;16.87;15.08;;;;;;;11.90;100.00;99705.59;1700856;84;21839;-60
2022/10/25 02:27:10;;;;;;;16.32;14.33;;;;;;;11.87;100.00;99706.09;1701901;83;21022;-60
2022/10/25 02:29:37;;;;;;;15.53;13.85;;;;;;;11.87;100.00;99701.30;1711886;83;21558;-61
2022/10/25 02:32:03;;;;;;;16.07;14.23;;;;;;;11.82;100.00;99698.02;1711833;82;21590;-60
2022/10/25 02:34:31;;;;;;;14.68;12.73;;;;;;;11.75;100.00;99690.01;1711872;83;21541;-60
2022/10/25 02:36:58;;;;;;;12.95;11.63;;;;;;;11.70;100.00;99696.82;1712321;82;21920;-60
2022/10/25 02:39:27;;;;;;;11.75;10.55;;;;;;;11.73;100.00;99708.98;1723066;82;21415;-60
2022/10/25 02:41:54;;;;;;;10.95;9.95;;;;;;;11.76;100.00;99706.22;1711779;83;21466;-61
2022/10/25 02:44:21;;;;;;;10.55;9.65;;;;;;;11.77;100.00;99706.59;1711619;83;21563;-61
2022/10/25 02:46:47;;;;;;;9.70;8.90;;;;;;;11.77;100.00;99711.86;1712846;82;21431;-61
2022/10/25 02:49:15;;;;;;;10.32;9.28;;;;;;;11.71;100.00;99708.20;1726156;82;21965;-60
2022/10/25 02:51:41;;;;;;;9.95;9.15;;;;;;;11.69;100.00;99711.75;1709273;82;21566;-60
2022/10/25 02:54:08;;;;;;;10.32;9.35;;;;;;;11.68;100.00;99710.06;1704222;83;21042;-60
2022/10/25 02:56:34;;;;;;;12.33;11.03;;;;;;;11.73;100.00;99703.72;1704502;82;20971;-60
2022/10/25 02:59:01;;;;;;;12.45;11.25;;;;;;;11.77;100.00;99705.28;1696589;83;21509;-60
2022/10/25 03:01:28;;;;;;;18.23;13.53;;;;;;;11.97;100.00;99707.02;1714755;81;21746;-61
2022/10/25 03:03:55;;;;;;;15.40;13.75;;;;;;;12.03;100.00;99706.24;1741215;82;21487;-60
2022/10/25 03:06:22;;;;;;;15.43;13.78;;;;;;;12.06;100.00;99703.47;1741941;82;21590;-60
2022/10/25 03:08:48;;;;;;;14.68;13.28;;;;;;;12.17;100.00;99696.84;1741918;82;21440;-60
2022/10/25 03:11:15;;;;;;;15.35;13.10;;;;;;;12.22;100.00;99693.50;1756942;80;21374;-60
2022/10/25 03:13:43;;;;;;;18.98;14.70;;;;;;;12.23;100.00;99687.31;1761764;79;21489;-60
2022/10/25 03:16:10;;;;;;;15.77;14.00;;;;;;;12.25;100.00;99678.39;1736230;82;21605;-60
2022/10/25 03:18:37;;;;;;;14.95;13.43;;;;;;;12.26;100.00;99684.51;1736072;82;21605;-60
2022/10/25 03:21:05;;;;;;;15.60;14.00;;;;;;;12.30;100.00;99680.82;1767155;80;21363;-60
2022/10/25 03:23:32;;;;;;;14.85;13.30;;;;;;;12.32;100.00;99680.72;1776120;80;21435;-60
2022/10/25 03:25:59;;;;;;;17.82;13.98;;;;;;;12.35;100.00;99685.38;1775933;80;21462;-60
2022/10/25 03:28:27;;;;;;;15.70;14.10;;;;;;;12.38;100.00;99685.71;1775870;80;21424;-60
2022/10/25 03:30:55;;;;;;;16.37;14.45;;;;;;;12.43;100.00;99682.36;1755849;80;21537;-59
2022/10/25 03:33:22;;;;;;;;;;;;;;;12.43;100.00;99681.91;1738814;82;21648;-60
2022/10/25 03:35:51;;;;;;;13.98;12.55;;;;;;;12.37;100.00;99684.83;1738003;82;20461;-60
2022/10/25 03:38:17;;;;;;;15.05;13.32;;;;;;;12.43;100.00;99685.88;1742127;82;21840;-60
2022/10/25 03:40:44;;;;;;;14.38;12.90;;;;;;;12.49;100.00;99681.20;1741864;82;20994;-60
2022/10/25 03:43:11;;;;;;;13.70;12.37;;;;;;;12.51;100.00;99681.97;1742112;80;21534;-60
2022/10/25 03:45:38;;;;;;;14.33;12.88;;;;;;;12.47;100.00;99683.94;1741951;82;22277;-60
2022/10/25 03:48:06;;;;;;;14.65;12.50;;;;;;;12.45;100.00;99674.78;1739551;82;21446;-60
2022/10/25 03:50:34;;;;;;;13.15;11.85;;;;;;;12.49;100.00;99673.28;1736056;82;21843;-60
2022/10/25 03:53:02;;;;;;;14.30;12.80;;;;;;;12.49;100.00;99669.33;1728819;81;21399;-60
2022/10/25 03:55:29;;;;;;;;;;;;;;;12.49;100.00;99670.65;1730567;82;21443;-60
2022/10/25 03:57:56;;;;;;;14.85;12.13;;;;;;;12.40;100.00;99663.59;1744972;80;20429;-59
2022/10/25 04:00:22;;;;;;;13.18;11.78;;;;;;;12.48;100.00;99674.23;1769952;80;21549;-61
2022/10/25 04:02:56;;;;;;;13.85;11.90;;;;;;;12.52;100.00;99667.39;1767204;80;21798;-61
2022/10/25 04:05:22;;;;;;;17.52;11.63;;;;;;;12.55;100.00;99665.09;1727645;80;22006;-61
2022/10/25 04:07:51;;;;;;;12.25;11.08;;;;;;;12.53;100.00;99659.05;1725611;80;21580;-61
2022/10/25 04:10:20;;;;;;;12.95;11.75;;;;;;;12.55;100.00;99661.98;1730565;80;21424;-60
2022/10/25 04:12:49;;;;;;;13.40;12.00;;;;;;;12.53;100.00;99649.81;1727972;80;21467;-62
2022/10/25 04:15:15;;;;;;;16.80;11.95;;;;;;;12.56;100.00;99657.55;1698257;84;21806;-61
2022/10/25 04:17:42;;;;;;;13.03;11.73;;;;;;;12.55;100.00;99647.95;1698305;84;21451;-62
2022/10/25 04:20:09;;;;;;;13.58;11.15;;;;;;;12.47;100.00;99644.38;1698040;82;21569;-62
2022/10/25 04:22:36;;;;;;;13.95;12.18;;;;;;;12.43;100.00;99647.64;1734224;80;21451;-61
2022/10/25 04:25:04;;;;;;;13.05;11.78;;;;;;;12.49;100.00;99653.51;1733862;82;21466;-62
2022/10/25 04:27:30;;;;;;;12.47;11.18;;;;;;;12.52;100.00;99654.20;1734054;81;21835;-62
2022/10/25 04:29:57;;;;;;;13.85;11.57;;;;;;;12.57;100.00;99650.88;1734057;82;21577;-62
2022/10/25 04:32:24;;;;;;;12.65;11.35;;;;;;;12.62;100.00;99650.19;1754219;80;21537;-61
2022/10/25 04:34:51;;;;;;;13.00;11.48;;;;;;;12.67;100.00;99640.70;1759432;81;21573;-61
2022/10/25 04:37:18;;;;;;;13.32;11.93;;;;;;;12.72;100.00;99644.45;1759470;81;21568;-61
2022/10/25 04:39:45;;;;;;;12.47;11.20;;;;;;;12.76;100.00;99643.34;1752869;80;22092;-60
2022/10/25 04:42:11;;;;;;;11.38;10.18;;;;;;;12.74;100.00;99642.10;1759562;81;21518;-59
2022/10/25 04:44:38;;;;;;;12.10;10.93;;;;;;;12.71;100.00;99640.93;1759339;81;21584;-59
2022/10/25 04:47:04;;;;;;;12.00;10.78;;;;;;;12.72;100.00;99640.48;1758492;79;21009;-64
2022/10/25 04:49:31;;;;;;;11.97;10.70;;;;;;;12.77;100.00;99630.08;1723926;80;21415;-60
2022/10/25 04:51:58;;;;;;;12.43;11.12;;;;;;;12.71;100.00;99634.34;1747730;79;21925;-59
2022/10/25 04:54:25;;;;;;;12.37;11.08;;;;;;;12.69;100.00;99634.04;1767857;80;21525;-58
2022/10/25 04:56:51;;;;;;;13.65;11.33;;;;;;;12.67;100.00;99632.80;1759465;79;21485;-60
2022/10/25 04:59:18;;;;;;;11.90;10.75;;;;;;;12.64;100.00;99632.50;1746977;80;21443;-60
2022/10/25 05:01:45;;;;;;;12.55;11.20;;;;;;;12.69;100.00;99629.61;1747177;81;21490;-60
2022/10/25 05:04:11;;;;;;;12.28;11.08;;;;;;;12.70;100.00;99626.05;1746996;81;21481;-59
2022/10/25 05:06:39;;;;;;;12.10;10.80;;;;;;;12.68;100.00;99632.31;1747148;80;21052;-61
2022/10/25 05:09:07;;;;;;;12.00;10.70;;;;;;;12.66;100.00;99637.70;1747038;81;20939;-60
2022/10/25 05:11:33;;;;;;;12.47;11.22;;;;;;;12.63;100.00;99632.57;1746744;81;21450;-61
2022/10/25 05:14:00;;;;;;;13.70;10.88;;;;;;;12.69;100.00;99637.52;1728814;81;21528;-60
2022/10/25 05:16:28;;;;;;;12.13;10.88;;;;;;;12.74;100.00;99631.55;1747056;80;21652;-60
2022/10/25 05:18:55;;;;;;;12.18;10.80;;;;;;;12.80;100.00;99636.97;1747110;81;21502;-60
2022/10/25 05:21:29;;;;;;;12.07;10.85;;;;;;;12.84;100.00;99629.28;1747090;81;21478;-59
2022/10/25 05:23:57;;;;;;;11.78;10.58;;;;;;;12.88;100.00;99629.97;1747185;81;21530;-59
2022/10/25 05:26:23;;;;;;;;;;;;;;;12.82;100.00;99631.99;1749654;81;21533;-59
2022/10/25 05:28:53;;;;;;;15.30;11.48;;;;;;;12.73;100.00;99628.52;1747334;81;21742;-60
2022/10/25 05:31:22;;;;;;;11.45;10.25;;;;;;;12.71;100.00;99629.53;1748381;80;21608;-58
2022/10/25 05:33:50;;;;;;;13.65;10.63;;;;;;;12.75;100.00;99633.27;1738075;80;21482;-59
2022/10/25 05:36:17;;;;;;;11.43;10.23;;;;;;;12.83;100.00;99635.03;1728730;80;21497;-61
2022/10/25 05:38:44;;;;;;;11.53;10.30;;;;;;;12.85;100.00;99629.20;1749393;80;21509;-59
2022/10/25 05:41:12;;;;;;;11.03;9.93;;;;;;;12.90;100.00;99625.47;1747290;80;21795;-59
2022/10/25 05:43:39;;;;;;;;;;;;;;;12.96;100.00;99626.45;1749651;80;21416;-60
2022/10/25 05:46:17;;;;;;;11.47;9.30;;;;;;;12.88;100.00;99622.06;1747060;81;20416;-61
2022/10/25 05:48:44;;;;;;;11.45;10.08;;;;;;;12.93;100.00;99627.48;1746980;81;21558;-59
2022/10/25 05:51:13;;;;;;;10.48;9.43;;;;;;;12.95;100.00;99630.05;1747090;81;21587;-60
2022/10/25 05:53:45;;;;;;;12.05;9.98;;;;;;;12.98;100.00;99632.05;1699919;83;21757;-61
2022/10/25 05:56:12;;;;;;;11.15;9.95;;;;;;;13.09;100.00;99634.58;1692524;84;20993;-59
2022/10/25 05:58:40;;;;;;;11.65;10.25;;;;;;;13.17;100.00;99635.89;1734042;81;21565;-59
2022/10/25 06:01:10;;;;;;;11.25;10.23;;;;;;;13.24;100.00;99637.27;1723320;82;21423;-59
2022/10/25 06:03:37;;;;;;;13.43;10.65;;;;;;;13.27;100.00;99632.75;1740323;80;21466;-59
2022/10/25 06:06:06;;;;;;;11.73;10.53;;;;;;;13.25;100.00;99630.19;1744342;80;21553;-60
2022/10/25 06:08:33;;;;;;;11.48;10.23;;;;;;;13.25;100.00;99635.47;1739099;80;21605;-57
2022/10/25 06:11:02;;;;;;;13.98;10.18;;;;;;;13.25;100.00;99631.03;1736992;80;21389;-58
2022/10/25 06:13:29;;;;;;;11.68;10.45;;;;;;;13.35;100.00;99627.93;1730422;80;21542;-61
2022/10/25 06:15:57;;;;;;;11.65;10.50;;;;;;;13.41;100.00;99623.18;1738586;80;21503;-61
2022/10/25 06:18:25;;;;;;;11.05;9.38;;;;;;;13.43;100.00;99621.30;1738920;80;21490;-60
2022/10/25 06:20:52;;;;;;;10.80;9.85;;;;;;;13.41;100.00;99622.30;1709459;82;21534;-60
2022/10/25 06:23:19;;;;;;;11.48;10.28;;;;;;;13.42;100.00;99620.91;1698359;82;21494;-60
2022/10/25 06:25:46;;;;;;;10.72;9.63;;;;;;;13.46;100.00;99622.07;1733084;80;21463;-60
2022/10/25 09:20:12;;;;;;;5.62;4.95;;;;;;;14.65;100.00;99542.06;1849173;76;27824;-61
2022/10/25 09:23:07;;;;;;;5.30;4.80;;;;;;;15.00;100.00;99538.56;1796949;76;21509;-60
2022/10/25 09:25:52;;;;;;;5.92;5.00;;;;;;;15.32;100.00;99533.02;1811736;76;21799;-60
2022/10/25 09:28:24;;;;;;;4.67;4.28;;;;;;;15.57;100.00;99521.19;1808720;77;21450;-60
2022/10/25 09:30:50;;;;;;;5.00;4.50;;;;;;;15.79;100.00;99517.66;1732597;80;21615;-61
2022/10/25 09:33:20;;;;;;;5.20;4.70;;;;;;;15.96;100.00;99523.52;1806203;77;21597;-60
2022/10/25 09:35:53;;;;;;;6.37;4.67;;;;;;;16.08;100.00;99513.87;1811162;77;20982;-60
2022/10/25 09:38:34;;;;;;;5.28;4.37;;;;;;;16.20;100.00;99519.30;1829616;77;21838;-59
2022/10/25 09:41:07;;;;;;;5.55;4.60;;;;;;;16.25;100.00;99516.71;1828691;77;21504;-61
2022/10/25 09:43:54;;;;;;;5.03;4.53;;;;;;;16.33;100.00;99513.53;1812655;77;21419;-60
2022/10/25 09:46:35;;;;;;;5.08;4.58;;;;;;;16.38;100.00;99503.45;1798390;78;21874;-59
2022/10/25 09:49:30;;;;;;;4.35;3.92;;;;;;;16.43;100.00;99509.30;1794570;78;21477;-60
2022/10/25 09:52:28;;;;;;;4.17;3.77;;;;;;;16.53;100.00;99507.70;1796789;78;21449;-61
2022/10/25 09:55:03;;;;;;;4.37;4.08;;;;;;;16.67;100.00;99508.08;1796711;78;21544;-60
2022/10/25 09:57:29;;;;;;;4.90;4.45;;;;;;;16.73;100.00;99503.66;1795578;78;21556;-60
2022/10/25 09:59:56;;;;;;;4.87;4.40;;;;;;;16.75;100.00;99502.23;1802377;76;21034;-61
2022/10/25 10:02:24;;;;;;;4.50;4.10;;;;;;;16.78;100.00;99502.48;1827892;76;21536;-60
2022/10/25 10:04:51;;;;;;;4.30;3.90;;;;;;;16.80;100.00;99504.54;1743538;79;21848;-62
2022/10/25 10:07:28;;;;;;;4.62;4.20;;;;;;;16.77;100.00;99502.97;1705616;80;21516;-60
2022/10/25 10:09:56;;;;;;;4.53;4.12;;;;;;;16.74;100.00;99498.73;1837217;75;21104;-62
2022/10/25 10:12:43;;;;;;;7.47;3.70;;;;;;;16.71;100.00;99501.59;1856008;76;21017;-61
2022/10/25 10:15:15;;;;;;;5.15;4.08;;;;;;;16.75;100.00;99498.24;1822986;76;21101;-60
2022/10/25 10:17:44;;;;;;;6.78;3.62;;;;;;;16.83;100.00;99497.73;1815668;76;21461;-60
2022/10/25 10:20:16;;;;;;;5.55;3.77;;;;;;;16.90;100.00;99502.49;1797761;77;21497;-60
2022/10/25 10:22:52;;;;;;;4.87;4.05;;;;;;;16.92;100.00;99502.39;1718832;81;21431;-59
2022/10/25 10:25:24;;;;;;;4.47;3.80;;;;;;;16.93;100.00;99498.76;1765317;80;21533;-59
2022/10/25 10:27:55;;;;;;;5.08;3.95;;;;;;;16.93;100.00;99497.43;1743017;80;21458;-60
2022/10/25 10:30:27;;;;;;;7.25;4.12;;;;;;;16.91;100.00;99498.02;1801595;78;21889;-59
2022/10/25 10:32:58;;;;;;;5.00;4.50;;;;;;;16.88;100.00;99502.24;1825435;77;21586;-59
2022/10/25 10:35:33;;;;;;;5.22;4.00;;;;;;;16.87;100.00;99493.89;1817847;77;21539;-59
2022/10/25 10:38:28;;;;;;;3.70;3.40;;;;;;;16.88;100.00;99503.57;1804688;78;21573;-59
2022/10/25 10:41:15;;;;;;;4.00;3.60;;;;;;;16.95;100.00;99499.98;1807587;77;21406;-60
2022/10/25 10:43:41;;;;;;;6.07;4.13;;;;;;;16.98;100.00;99493.97;1810832;78;21847;-59
2022/10/25 10:46:13;;;;;;;4.40;4.00;;;;;;;16.85;100.00;99488.69;1783525;78;21458;-60
2022/10/25 10:48:44;;;;;;;6.60;4.10;;;;;;;16.82;100.00;99485.37;1741689;80;21450;-59
2022/10/25 10:51:14;;;;;;;3.40;3.10;;;;;;;16.79;100.00;99485.61;1785475;77;21410;-59
2022/10/25 10:53:42;;;;;;;4.53;3.67;;;;;;;16.76;100.00;99489.30;1795922;77;21418;-60
2022/10/25 10:56:09;;;;;;;4.53;3.85;;;;;;;16.76;100.00;99489.80;1779062;78;21834;-60
2022/10/25 10:58:37;;;;;;;4.12;3.70;;;;;;;16.72;100.00;99483.36;1758956;77;21526;-59
2022/10/25 11:01:07;;;;;;;4.28;3.80;;;;;;;16.72;100.00;99483.84;1790973;77;21640;-60
2022/10/25 11:03:42;;;;;;;3.72;3.33;;;;;;;16.72;100.00;99483.36;1813394;76;21533;-60
2022/10/25 11:06:27;;;;;;;4.12;3.58;;;;;;;16.79;100.00;99478.97;1796207;77;21396;-59
2022/10/25 11:09:11;;;;;;;5.03;4.05;;;;;;;16.81;100.00;99478.38;1830804;77;21868;-58
2022/10/25 11:11:39;;;;;;;5.42;3.77;;;;;;;16.78;100.00;99477.25;1793785;77;21602;-61
2022/10/25 11:14:12;;;;;;;4.47;3.45;;;;;;;16.75;100.00;99479.66;1793588;77;21030;-60
2022/10/25 11:17:18;;;;;;;4.58;4.05;;;;;;;16.77;100.00;99485.70;1795590;77;20990;-60
2022/10/25 11:19:53;;;;;;;;;;;;;;;16.74;100.00;99484.13;1818422;77;20935;-60
2022/10/25 11:22:37;;;;;;;6.60;4.58;;;;;;;16.67;100.00;99492.61;1801627;76;20774;-60
2022/10/25 11:25:25;;;;;;;4.47;4.10;;;;;;;16.67;100.00;99492.61;1819049;77;21477;-59
2022/10/25 11:28:04;;;;;;;;;;;;;;;16.63;100.00;99498.64;1789387;77;21629;-59
2022/10/25 11:30:41;;;;;;;4.47;3.83;;;;;;;16.57;100.00;99496.39;1777607;77;20650;-60
2022/10/25 11:33:20;;;;;;;5.03;3.72;;;;;;;16.69;100.00;99494.22;1793111;77;21391;-61
2022/10/25 11:36:30;;;;;;;5.17;4.20;;;;;;;16.76;100.00;99490.63;1782765;77;21593;-61
2022/10/25 11:39:09;;;;;;;5.30;4.20;;;;;;;16.78;100.00;99486.55;1783312;77;21403;-60
2022/10/25 11:41:56;;;;;;;5.30;3.95;;;;;;;16.72;100.00;99486.02;1790698;77;21521;-60
2022/10/25 11:45:02;;;;;;;6.80;4.25;;;;;;;16.65;100.00;99482.58;1805295;77;21604;-61
2022/10/25 11:47:46;;;;;;;4.53;4.12;;;;;;;16.56;100.00;99481.44;1787557;77;21533;-61
2022/10/25 11:51:01;;;;;;;4.17;3.72;;;;;;;16.45;100.00;99486.16;1762007;77;21913;-61
2022/10/25 11:54:07;;;;;;;5.37;4.15;;;;;;;16.46;100.00;99490.98;1803445;76;21574;-61
2022/10/25 11:57:08;;;;;;;4.53;3.98;;;;;;;16.50;100.00;99490.68;1826801;76;21583;-60
2022/10/25 12:00:05;;;;;;;4.92;4.35;;;;;;;16.47;100.00;99490.88;1782630;77;21536;-60
2022/10/25 12:02:44;;;;;;;5.22;4.72;;;;;;;16.42;100.00;99487.69;1797576;77;21484;-60
2022/10/25 12:05:35;;;;;;;6.87;4.50;;;;;;;16.40;100.00;99484.30;1733817;80;21867;-61
2022/10/25 12:08:29;;;;;;;7.10;4.22;;;;;;;16.37;100.00;99485.86;1818442;76;21542;-60
2022/10/25 12:11:06;;;;;;;5.08;4.58;;;;;;;16.31;100.00;99476.52;1812468;76;21017;-60
2022/10/25 12:13:41;;;;;;;4.78;4.33;;;;;;;16.23;100.00;99481.97;1826516;77;21485;-60
2022/10/25 12:16:11;;;;;;;6.95;4.12;;;;;;;16.18;100.00;99482.30;1746148;79;21566;-60
2022/10/25 12:18:47;;;;;;;4.53;4.05;;;;;;;16.28;100.00;99481.19;1816384;77;21765;-60
2022/10/25 12:21:21;;;;;;;4.70;4.25;;;;;;;16.33;100.00;99477.26;1817919;77;21399;-60
2022/10/25 12:23:50;;;;;;;5.78;5.17;;;;;;;16.32;100.00;99476.88;1815261;77;21522;-61
2022/10/25 12:26:28;;;;;;;5.37;4.87;;;;;;;16.31;100.00;99476.52;1799971;77;21466;-60
2022/10/25 12:29:08;;;;;;;7.33;5.15;;;;;;;16.27;100.00;99470.19;1809876;76;21555;-60
2022/10/25 12:31:41;;;;;;;6.35;5.65;;;;;;;16.23;100.00;99468.22;1805415;76;21813;-60
2022/10/25 12:34:33;;;;;;;6.08;5.00;;;;;;;16.19;100.00;99467.23;1787001;77;21415;-60
2022/10/25 12:37:14;;;;;;;5.72;4.80;;;;;;;16.14;100.00;99472.83;1804142;77;21034;-59
2022/10/25 12:39:42;;;;;;;5.67;5.00;;;;;;;16.06;100.00;99475.17;1838359;76;21399;-61
2022/10/25 12:42:28;;;;;;;5.60;4.97;;;;;;;16.07;100.00;99478.20;1785266;77;21443;-60
2022/10/25 12:45:46;;;;;;;5.65;4.87;;;;;;;16.11;100.00;99471.25;1776006;78;21503;-62
2022/10/25 12:48:38;;;;;;;8.10;5.12;;;;;;;16.09;100.00;99477.14;1792159;76;21485;-61
2022/10/25 12:51:36;;;;;;;5.75;5.20;;;;;;;16.05;100.00;99478.31;1781796;76;21498;-60
2022/10/25 12:54:53;;;;;;;6.87;4.80;;;;;;;16.01;100.00;99473.30;1801163;77;21576;-61
2022/10/25 12:57:31;;;;;;;5.90;5.12;;;;;;;15.91;100.00;99469.10;1824963;77;21509;-60
2022/10/25 13:00:14;;;;;;;6.50;5.17;;;;;;;15.83;100.00;99470.11;1815867;77;21873;-60
2022/10/25 13:03:11;;;;;;;7.03;5.47;;;;;;;15.80;100.00;99485.72;1823446;76;21045;-60
2022/10/25 13:06:22;;;;;;;6.08;5.47;;;;;;;15.80;100.00;99487.05;1786813;77;21752;-60
2022/10/25 13:08:49;;;;;;;7.97;7.20;;;;;;;15.78;100.00;99486.78;1821996;76;21556;-63
2022/10/25 13:11:16;;;;;;;9.30;6.42;;;;;;;15.71;100.00;99485.01;1772509;76;21502;-60
2022/10/25 13:13:51;;;;;;;9.18;7.10;;;;;;;15.65;100.00;99483.61;1801652;77;21741;-61
2022/10/25 13:16:28;;;;;;;11.88;7.80;;;;;;;15.57;100.00;99489.87;1795818;76;21522;-61
2022/10/25 13:19:28;;;;;;;8.90;6.67;;;;;;;15.49;100.00;99483.76;1804598;76;21658;-61
2022/10/25 13:22:00;;;;;;;8.13;6.20;;;;;;;15.39;100.00;99487.98;1787921;77;21486;-60
2022/10/25 17:13:58;;;;;;;21.95;19.12;;;;;;;11.94;100.00;99533.25;1821155;77;27261;-61
2022/10/25 17:16:47;;;;;;;20.45;18.07;;;;;;;12.50;100.00;99557.18;1771223;78;21683;-61
2022/10/25 17:19:14;;;;;;;17.98;16.02;;;;;;;12.76;100.00;99555.81;1803212;78;21777;-62
2022/10/25 17:21:42;;;;;;;17.95;16.23;;;;;;;12.97;100.00;99555.60;1765748;79;21553;-61
2022/10/25 17:24:08;;;;;;;17.32;15.00;;;;;;;13.14;100.00;99547.61;1808937;78;21469;-62
2022/10/25 17:26:35;;;;;;;16.73;15.08;;;;;;;13.32;100.00;99542.30;1760662;79;20990;-61
2022/10/25 17:29:04;;;;;;;17.23;15.43;;;;;;;13.48;100.00;99539.16;1759463;80;21470;-62
2022/10/25 17:31:33;;;;;;;16.30;14.60;;;;;;;13.64;100.00;99537.84;1754759;80;21828;-63
2022/10/25 17:34:00;;;;;;;17.20;15.45;;;;;;;13.77;100.00;99527.42;1805694;78;21564;-63
2022/10/25 17:36:28;;;;;;;15.00;13.60;;;;;;;13.90;100.00;99523.57;1789513;78;21509;-63
2022/10/25 17:38:54;;;;;;;14.25;11.83;;;;;;;14.00;100.00;99512.86;1800709;78;21770;-60
2022/10/25 17:41:22;;;;;;;12.70;11.48;;;;;;;14.10;100.00;99507.39;1807354;78;21413;-62
2022/10/25 17:43:49;;;;;;;12.78;11.50;;;;;;;14.24;100.00;99504.39;1773476;80;26001;-62
2022/10/25 17:46:18;;;;;;;13.43;12.13;;;;;;;14.34;100.00;99487.04;1772771;79;20986;-62
2022/10/25 17:48:45;;;;;;;13.62;12.23;;;;;;;14.43;100.00;99481.19;1791032;78;21521;-60
2022/10/25 17:51:13;;;;;;;13.25;11.90;;;;;;;14.49;100.00;99470.70;1808199;78;21469;-60
2022/10/25 17:53:41;;;;;;;12.23;10.93;;;;;;;14.51;100.00;99463.04;1809601;78;21563;-62
2022/10/25 17:56:12;;;;;;;12.20;11.00;;;;;;;14.56;100.00;99464.94;1808001;78;21750;-64
2022/10/25 17:58:40;;;;;;;12.18;10.98;;;;;;;14.60;100.00;99459.02;1793423;77;21429;-62
2022/10/25 18:01:10;;;;;;;12.35;11.15;;;;;;;14.63;100.00;99456.16;1792383;78;21442;-62
2022/10/25 18:03:37;;;;;;;12.70;11.25;;;;;;;14.68;100.00;99449.27;1796384;78;21524;-60
2022/10/25 18:06:08;;;;;;;14.13;12.73;;;;;;;14.73;100.00;99453.78;1791320;78;21501;-62
2022/10/25 18:08:36;;;;;;;15.95;14.18;;;;;;;14.77;100.00;99448.70;1807463;78;21861;-60
2022/10/25 18:11:22;;;;;;;16.67;15.03;;;;;;;14.77;100.00;99445.56;1808089;78;21527;-60
2022/10/25 18:13:49;;;;;;;13.32;12.07;;;;;;;14.76;100.00;99445.17;1791855;77;21083;-62
2022/10/25 18:16:17;;;;;;;12.05;11.00;;;;;;;14.76;100.00;99441.20;1795550;78;21008;-61
2022/10/25 18:18:43;;;;;;;12.43;11.23;;;;;;;14.82;100.00;99446.59;1754179;79;21565;-61
2022/10/25 18:21:13;;;;;;;11.95;10.50;;;;;;;14.88;100.00;99441.38;1808299;78;21782;-61
2022/10/25 18:23:40;;;;;;;13.32;11.05;;;;;;;14.89;100.00;99432.02;1758276;80;21549;-61
2022/10/25 18:26:08;;;;;;;12.30;11.10;;;;;;;14.95;100.00;99437.39;1804705;78;21543;-62
2022/10/25 18:28:36;;;;;;;12.68;11.48;;;;;;;14.95;100.00;99431.62;1769947;80;21403;-61
2022/10/25 18:31:06;;;;;;;12.75;11.57;;;;;;;14.99;100.00;99433.59;1768267;80;21533;-62